sensor_id;sensor_type;location;lat;lon;timestamp;P1;durP1;ratioP1;P2;durP2;ratioP2
48975;SDS011;34791;52.752;8.346;2023-06-05T00:00:31;18.87;;;9.20;;
48975;SDS011;34791;52.752;8.346;2023-06-05T00:02:56;19.70;;;9.23;;
48975;SDS011;34791;52.752;8.346;2023-06-05T00:05:21;19.33;;;9.23;;
48975;SDS011;34791;52.752;8.346;2023-06-05T00:07:51;21.33;;;9.53;;
48975;SDS011;34791;52.752;8.346;2023-06-05T00:10:16;25.53;;;9.37;;
48975;SDS011;34791;52.752;8.346;2023-06-05T00:12:41;21.87;;;9.60;;
48975;SDS011;34791;52.752;8.346;2023-06-05T00:15:07;22.37;;;9.80;;
48975;SDS011;34791;52.752;8.346;2023-06-05T00:17:32;18.63;;;9.50;;
48975;SDS011;34791;52.752;8.346;2023-06-05T00:19:57;23.00;;;10.13;;
48975;SDS011;34791;52.752;8.346;2023-06-05T00:22:26;22.50;;;10.00;;
48975;SDS011;34791;52.752;8.346;2023-06-05T00:24:52;23.80;;;9.90;;
48975;SDS011;34791;52.752;8.346;2023-06-05T00:27:17;21.70;;;10.67;;
48975;SDS011;34791;52.752;8.346;2023-06-05T00:29:43;22.37;;;10.57;;
48975;SDS011;34791;52.752;8.346;2023-06-05T00:32:08;21.87;;;10.00;;
48975;SDS011;34791;52.752;8.346;2023-06-05T00:34:33;31.10;;;10.40;;
48975;SDS011;34791;52.752;8.346;2023-06-05T00:36:59;20.87;;;9.70;;
48975;SDS011;34791;52.752;8.346;2023-06-05T00:39:24;22.10;;;10.07;;
48975;SDS011;34791;52.752;8.346;2023-06-05T00:41:49;23.53;;;10.37;;
48975;SDS011;34791;52.752;8.346;2023-06-05T00:44:17;24.83;;;11.00;;
48975;SDS011;34791;52.752;8.346;2023-06-05T00:46:43;22.57;;;10.30;;
48975;SDS011;34791;52.752;8.346;2023-06-05T00:49:08;23.20;;;11.10;;
48975;SDS011;34791;52.752;8.346;2023-06-05T00:51:34;26.20;;;11.23;;
48975;SDS011;34791;52.752;8.346;2023-06-05T00:54:00;28.50;;;11.97;;
48975;SDS011;34791;52.752;8.346;2023-06-05T00:56:26;23.27;;;11.37;;
48975;SDS011;34791;52.752;8.346;2023-06-05T00:58:52;26.93;;;11.47;;
48975;SDS011;34791;52.752;8.346;2023-06-05T01:04:20;31.37;;;11.63;;
48975;SDS011;34791;52.752;8.346;2023-06-05T01:06:48;29.20;;;12.27;;
48975;SDS011;34791;52.752;8.346;2023-06-05T01:09:15;31.13;;;12.60;;
48975;SDS011;34791;52.752;8.346;2023-06-05T01:12:27;32.23;;;11.80;;
48975;SDS011;34791;52.752;8.346;2023-06-05T01:14:30;31.47;;;12.03;;
48975;SDS011;34791;52.752;8.346;2023-06-05T01:16:57;29.75;;;12.88;;
48975;SDS011;34791;52.752;8.346;2023-06-05T01:19:26;26.97;;;11.90;;
48975;SDS011;34791;52.752;8.346;2023-06-05T01:21:53;26.57;;;11.90;;
48975;SDS011;34791;52.752;8.346;2023-06-05T01:24:20;31.20;;;12.40;;
48975;SDS011;34791;52.752;8.346;2023-06-05T01:32:58;28.13;;;11.63;;
48975;SDS011;34791;52.752;8.346;2023-06-05T01:35:27;32.00;;;12.33;;
48975;SDS011;34791;52.752;8.346;2023-06-05T01:37:53;34.10;;;13.40;;
48975;SDS011;34791;52.752;8.346;2023-06-05T01:40:20;35.80;;;13.03;;
48975;SDS011;34791;52.752;8.346;2023-06-05T01:42:46;32.13;;;12.57;;
48975;SDS011;34791;52.752;8.346;2023-06-05T01:45:13;34.53;;;12.97;;
48975;SDS011;34791;52.752;8.346;2023-06-05T01:47:38;30.67;;;12.47;;
48975;SDS011;34791;52.752;8.346;2023-06-05T01:50:04;35.53;;;13.03;;
48975;SDS011;34791;52.752;8.346;2023-06-05T01:52:33;33.90;;;12.60;;
48975;SDS011;34791;52.752;8.346;2023-06-05T01:54:59;30.37;;;12.07;;
48975;SDS011;34791;52.752;8.346;2023-06-05T01:57:28;34.23;;;13.20;;
48975;SDS011;34791;52.752;8.346;2023-06-05T01:59:53;31.90;;;12.80;;
48975;SDS011;34791;52.752;8.346;2023-06-05T02:02:19;33.43;;;12.53;;
48975;SDS011;34791;52.752;8.346;2023-06-05T02:04:46;29.90;;;12.13;;
48975;SDS011;34791;52.752;8.346;2023-06-05T02:07:12;37.20;;;12.27;;
48975;SDS011;34791;52.752;8.346;2023-06-05T02:09:38;32.43;;;13.00;;
48975;SDS011;34791;52.752;8.346;2023-06-05T02:12:03;31.13;;;12.27;;
48975;SDS011;34791;52.752;8.346;2023-06-05T02:14:29;31.67;;;12.23;;
48975;SDS011;34791;52.752;8.346;2023-06-05T02:16:54;32.83;;;12.80;;
48975;SDS011;34791;52.752;8.346;2023-06-05T02:19:19;32.83;;;12.73;;
48975;SDS011;34791;52.752;8.346;2023-06-05T02:21:44;34.83;;;12.43;;
48975;SDS011;34791;52.752;8.346;2023-06-05T02:24:10;33.57;;;12.73;;
48975;SDS011;34791;52.752;8.346;2023-06-05T02:26:35;38.33;;;13.27;;
48975;SDS011;34791;52.752;8.346;2023-06-05T02:29:00;34.47;;;12.90;;
48975;SDS011;34791;52.752;8.346;2023-06-05T02:31:26;32.37;;;12.27;;
48975;SDS011;34791;52.752;8.346;2023-06-05T02:33:54;30.93;;;12.43;;
48975;SDS011;34791;52.752;8.346;2023-06-05T02:36:20;35.53;;;12.67;;
48975;SDS011;34791;52.752;8.346;2023-06-05T02:38:45;32.43;;;12.20;;
48975;SDS011;34791;52.752;8.346;2023-06-05T02:41:11;34.40;;;12.30;;
48975;SDS011;34791;52.752;8.346;2023-06-05T02:43:36;32.47;;;13.17;;
48975;SDS011;34791;52.752;8.346;2023-06-05T02:46:01;36.33;;;13.03;;
48975;SDS011;34791;52.752;8.346;2023-06-05T02:48:27;34.80;;;12.80;;
48975;SDS011;34791;52.752;8.346;2023-06-05T02:50:52;32.57;;;12.30;;
48975;SDS011;34791;52.752;8.346;2023-06-05T02:53:17;37.00;;;12.00;;
48975;SDS011;34791;52.752;8.346;2023-06-05T02:55:43;32.33;;;12.33;;
48975;SDS011;34791;52.752;8.346;2023-06-05T02:58:08;36.70;;;13.17;;
48975;SDS011;34791;52.752;8.346;2023-06-05T03:00:34;40.23;;;12.63;;
48975;SDS011;34791;52.752;8.346;2023-06-05T03:02:59;40.50;;;13.33;;
48975;SDS011;34791;52.752;8.346;2023-06-05T03:05:25;40.53;;;13.40;;
48975;SDS011;34791;52.752;8.346;2023-06-05T03:07:52;36.40;;;13.13;;
48975;SDS011;34791;52.752;8.346;2023-06-05T03:10:19;37.40;;;13.13;;
48975;SDS011;34791;52.752;8.346;2023-06-05T03:12:44;36.53;;;13.23;;
48975;SDS011;34791;52.752;8.346;2023-06-05T03:15:10;34.27;;;12.90;;
48975;SDS011;34791;52.752;8.346;2023-06-05T03:17:36;35.20;;;12.83;;
48975;SDS011;34791;52.752;8.346;2023-06-05T03:20:02;37.33;;;13.40;;
48975;SDS011;34791;52.752;8.346;2023-06-05T03:22:27;35.00;;;13.33;;
48975;SDS011;34791;52.752;8.346;2023-06-05T03:24:52;37.73;;;13.17;;
48975;SDS011;34791;52.752;8.346;2023-06-05T03:27:17;34.30;;;12.47;;
48975;SDS011;34791;52.752;8.346;2023-06-05T03:29:43;43.40;;;13.97;;
48975;SDS011;34791;52.752;8.346;2023-06-05T03:32:08;32.43;;;12.27;;
48975;SDS011;34791;52.752;8.346;2023-06-05T03:34:33;39.37;;;13.57;;
48975;SDS011;34791;52.752;8.346;2023-06-05T03:37:01;28.07;;;12.20;;
48975;SDS011;34791;52.752;8.346;2023-06-05T03:39:27;37.37;;;12.80;;
48975;SDS011;34791;52.752;8.346;2023-06-05T03:41:52;33.93;;;12.53;;
48975;SDS011;34791;52.752;8.346;2023-06-05T03:44:18;29.43;;;11.60;;
48975;SDS011;34791;52.752;8.346;2023-06-05T03:46:43;30.10;;;12.10;;
48975;SDS011;34791;52.752;8.346;2023-06-05T03:49:09;27.93;;;11.80;;
48975;SDS011;34791;52.752;8.346;2023-06-05T03:51:35;24.80;;;10.97;;
48975;SDS011;34791;52.752;8.346;2023-06-05T03:54:01;24.60;;;10.70;;
48975;SDS011;34791;52.752;8.346;2023-06-05T03:56:27;24.37;;;10.70;;
48975;SDS011;34791;52.752;8.346;2023-06-05T03:59:07;23.90;;;10.17;;
48975;SDS011;34791;52.752;8.346;2023-06-05T04:01:44;25.57;;;10.50;;
48975;SDS011;34791;52.752;8.346;2023-06-05T04:04:09;23.77;;;9.97;;
48975;SDS011;34791;52.752;8.346;2023-06-05T04:06:35;20.80;;;9.57;;
48975;SDS011;34791;52.752;8.346;2023-06-05T04:09:01;21.73;;;9.60;;
48975;SDS011;34791;52.752;8.346;2023-06-05T04:11:27;17.97;;;9.33;;
48975;SDS011;34791;52.752;8.346;2023-06-05T04:13:53;17.83;;;8.97;;
48975;SDS011;34791;52.752;8.346;2023-06-05T04:16:18;17.63;;;8.40;;
48975;SDS011;34791;52.752;8.346;2023-06-05T04:18:44;16.03;;;8.23;;
48975;SDS011;34791;52.752;8.346;2023-06-05T04:21:09;19.27;;;7.87;;
48975;SDS011;34791;52.752;8.346;2023-06-05T04:23:35;15.13;;;7.77;;
48975;SDS011;34791;52.752;8.346;2023-06-05T04:26:01;18.50;;;7.27;;
48975;SDS011;34791;52.752;8.346;2023-06-05T04:28:26;14.53;;;7.10;;
48975;SDS011;34791;52.752;8.346;2023-06-05T04:30:51;13.03;;;6.77;;
48975;SDS011;34791;52.752;8.346;2023-06-05T04:33:16;15.53;;;6.60;;
48975;SDS011;34791;52.752;8.346;2023-06-05T04:35:42;13.00;;;6.10;;
48975;SDS011;34791;52.752;8.346;2023-06-05T04:38:07;12.23;;;6.53;;
48975;SDS011;34791;52.752;8.346;2023-06-05T04:40:33;13.63;;;5.93;;
48975;SDS011;34791;52.752;8.346;2023-06-05T04:42:58;12.67;;;6.30;;
48975;SDS011;34791;52.752;8.346;2023-06-05T04:45:24;18.63;;;8.03;;
48975;SDS011;34791;52.752;8.346;2023-06-05T04:47:49;13.30;;;5.67;;
48975;SDS011;34791;52.752;8.346;2023-06-05T04:50:22;12.50;;;5.63;;
48975;SDS011;34791;52.752;8.346;2023-06-05T04:52:47;12.20;;;5.93;;
48975;SDS011;34791;52.752;8.346;2023-06-05T04:55:13;11.37;;;5.47;;
48975;SDS011;34791;52.752;8.346;2023-06-05T04:57:38;9.63;;;5.07;;
48975;SDS011;34791;52.752;8.346;2023-06-05T05:00:03;9.18;;;5.03;;
48975;SDS011;34791;52.752;8.346;2023-06-05T05:02:29;11.18;;;5.07;;
48975;SDS011;34791;52.752;8.346;2023-06-05T05:04:54;8.65;;;4.38;;
48975;SDS011;34791;52.752;8.346;2023-06-05T05:07:20;13.10;;;4.68;;
48975;SDS011;34791;52.752;8.346;2023-06-05T05:09:47;11.43;;;4.50;;
48975;SDS011;34791;52.752;8.346;2023-06-05T05:12:12;12.00;;;5.30;;
48975;SDS011;34791;52.752;8.346;2023-06-05T05:14:38;12.30;;;5.30;;
48975;SDS011;34791;52.752;8.346;2023-06-05T05:17:05;9.35;;;4.78;;
48975;SDS011;34791;52.752;8.346;2023-06-05T05:19:30;12.90;;;4.72;;
48975;SDS011;34791;52.752;8.346;2023-06-05T05:21:56;11.02;;;4.68;;
48975;SDS011;34791;52.752;8.346;2023-06-05T05:24:22;9.23;;;4.40;;
48975;SDS011;34791;52.752;8.346;2023-06-05T05:26:48;12.73;;;4.90;;
48975;SDS011;34791;52.752;8.346;2023-06-05T05:29:14;11.25;;;4.85;;
48975;SDS011;34791;52.752;8.346;2023-06-05T05:31:39;10.13;;;4.65;;
48975;SDS011;34791;52.752;8.346;2023-06-05T05:34:04;9.43;;;4.55;;
48975;SDS011;34791;52.752;8.346;2023-06-05T05:36:30;11.43;;;4.35;;
48975;SDS011;34791;52.752;8.346;2023-06-05T05:38:55;11.18;;;4.38;;
48975;SDS011;34791;52.752;8.346;2023-06-05T05:41:20;13.27;;;4.65;;
48975;SDS011;34791;52.752;8.346;2023-06-05T05:43:46;11.82;;;4.60;;
48975;SDS011;34791;52.752;8.346;2023-06-05T05:46:11;8.77;;;4.38;;
48975;SDS011;34791;52.752;8.346;2023-06-05T05:48:36;8.38;;;4.07;;
48975;SDS011;34791;52.752;8.346;2023-06-05T05:51:02;7.60;;;3.70;;
48975;SDS011;34791;52.752;8.346;2023-06-05T05:53:28;13.20;;;4.13;;
48975;SDS011;34791;52.752;8.346;2023-06-05T05:55:53;7.97;;;3.83;;
48975;SDS011;34791;52.752;8.346;2023-06-05T05:58:18;9.88;;;4.60;;
48975;SDS011;34791;52.752;8.346;2023-06-05T06:00:44;10.00;;;4.18;;
48975;SDS011;34791;52.752;8.346;2023-06-05T06:03:09;10.65;;;4.07;;
48975;SDS011;34791;52.752;8.346;2023-06-05T06:05:34;9.52;;;3.88;;
48975;SDS011;34791;52.752;8.346;2023-06-05T06:08:01;8.52;;;3.70;;
48975;SDS011;34791;52.752;8.346;2023-06-05T06:10:26;9.32;;;3.65;;
48975;SDS011;34791;52.752;8.346;2023-06-05T06:12:52;7.97;;;3.33;;
48975;SDS011;34791;52.752;8.346;2023-06-05T06:15:18;9.10;;;3.70;;
48975;SDS011;34791;52.752;8.346;2023-06-05T06:17:43;10.50;;;4.28;;
48975;SDS011;34791;52.752;8.346;2023-06-05T06:20:09;8.88;;;4.00;;
48975;SDS011;34791;52.752;8.346;2023-06-05T06:22:37;8.20;;;3.53;;
48975;SDS011;34791;52.752;8.346;2023-06-05T06:25:03;6.97;;;3.45;;
48975;SDS011;34791;52.752;8.346;2023-06-05T06:27:28;8.63;;;3.55;;
48975;SDS011;34791;52.752;8.346;2023-06-05T06:29:54;10.02;;;3.70;;
48975;SDS011;34791;52.752;8.346;2023-06-05T06:32:19;10.57;;;3.80;;
48975;SDS011;34791;52.752;8.346;2023-06-05T06:34:45;12.75;;;4.28;;
48975;SDS011;34791;52.752;8.346;2023-06-05T06:37:14;10.63;;;4.18;;
48975;SDS011;34791;52.752;8.346;2023-06-05T06:39:42;12.10;;;4.22;;
48975;SDS011;34791;52.752;8.346;2023-06-05T06:42:10;10.50;;;4.53;;
48975;SDS011;34791;52.752;8.346;2023-06-05T06:44:36;13.48;;;4.75;;
48975;SDS011;34791;52.752;8.346;2023-06-05T06:47:01;10.88;;;4.60;;
48975;SDS011;34791;52.752;8.346;2023-06-05T06:49:27;9.85;;;3.78;;
48975;SDS011;34791;52.752;8.346;2023-06-05T06:51:52;9.57;;;4.72;;
48975;SDS011;34791;52.752;8.346;2023-06-05T06:54:17;20.05;;;4.72;;
48975;SDS011;34791;52.752;8.346;2023-06-05T06:56:43;11.45;;;4.20;;
48975;SDS011;34791;52.752;8.346;2023-06-05T06:59:13;11.45;;;4.43;;
48975;SDS011;34791;52.752;8.346;2023-06-05T07:01:45;9.90;;;4.22;;
48975;SDS011;34791;52.752;8.346;2023-06-05T07:04:11;9.50;;;4.38;;
48975;SDS011;34791;52.752;8.346;2023-06-05T07:06:37;8.32;;;4.18;;
48975;SDS011;34791;52.752;8.346;2023-06-05T07:09:03;9.88;;;4.93;;
48975;SDS011;34791;52.752;8.346;2023-06-05T07:11:28;8.63;;;4.22;;
48975;SDS011;34791;52.752;8.346;2023-06-05T07:13:54;13.38;;;4.68;;
48975;SDS011;34791;52.752;8.346;2023-06-05T07:16:19;9.60;;;4.15;;
48975;SDS011;34791;52.752;8.346;2023-06-05T07:18:45;8.73;;;4.18;;
48975;SDS011;34791;52.752;8.346;2023-06-05T07:21:10;10.60;;;4.60;;
48975;SDS011;34791;52.752;8.346;2023-06-05T07:23:36;11.70;;;4.38;;
48975;SDS011;34791;52.752;8.346;2023-06-05T07:26:01;11.02;;;4.65;;
48975;SDS011;34791;52.752;8.346;2023-06-05T07:28:27;11.63;;;4.80;;
48975;SDS011;34791;52.752;8.346;2023-06-05T07:30:52;10.88;;;4.05;;
48975;SDS011;34791;52.752;8.346;2023-06-05T07:33:17;10.07;;;3.97;;
48975;SDS011;34791;52.752;8.346;2023-06-05T07:35:43;11.02;;;4.00;;
48975;SDS011;34791;52.752;8.346;2023-06-05T07:38:10;8.70;;;3.80;;
48975;SDS011;34791;52.752;8.346;2023-06-05T07:40:35;9.75;;;3.72;;
48975;SDS011;34791;52.752;8.346;2023-06-05T07:43:01;11.60;;;4.10;;
48975;SDS011;34791;52.752;8.346;2023-06-05T07:45:26;14.65;;;4.10;;
48975;SDS011;34791;52.752;8.346;2023-06-05T07:47:51;8.90;;;3.92;;
48975;SDS011;34791;52.752;8.346;2023-06-05T07:50:17;10.13;;;3.95;;
48975;SDS011;34791;52.752;8.346;2023-06-05T07:52:42;8.13;;;3.25;;
48975;SDS011;34791;52.752;8.346;2023-06-05T07:55:07;11.68;;;3.65;;
48975;SDS011;34791;52.752;8.346;2023-06-05T07:57:33;8.30;;;3.70;;
48975;SDS011;34791;52.752;8.346;2023-06-05T07:59:58;10.38;;;3.95;;
48975;SDS011;34791;52.752;8.346;2023-06-05T08:02:23;10.23;;;3.58;;
48975;SDS011;34791;52.752;8.346;2023-06-05T08:04:49;8.88;;;3.80;;
48975;SDS011;34791;52.752;8.346;2023-06-05T08:07:14;10.80;;;3.78;;
48975;SDS011;34791;52.752;8.346;2023-06-05T08:09:40;9.88;;;3.88;;
48975;SDS011;34791;52.752;8.346;2023-06-05T08:12:05;10.85;;;3.58;;
48975;SDS011;34791;52.752;8.346;2023-06-05T08:14:31;8.05;;;3.20;;
48975;SDS011;34791;52.752;8.346;2023-06-05T08:16:56;6.88;;;3.08;;
48975;SDS011;34791;52.752;8.346;2023-06-05T08:19:22;9.50;;;3.13;;
48975;SDS011;34791;52.752;8.346;2023-06-05T08:21:50;10.15;;;3.30;;
48975;SDS011;34791;52.752;8.346;2023-06-05T08:24:16;7.50;;;3.22;;
48975;SDS011;34791;52.752;8.346;2023-06-05T08:26:42;10.15;;;3.42;;
48975;SDS011;34791;52.752;8.346;2023-06-05T08:29:07;9.10;;;3.78;;
48975;SDS011;34791;52.752;8.346;2023-06-05T08:31:32;7.30;;;3.13;;
48975;SDS011;34791;52.752;8.346;2023-06-05T08:33:59;6.40;;;3.20;;
48975;SDS011;34791;52.752;8.346;2023-06-05T08:36:24;10.00;;;3.30;;
48975;SDS011;34791;52.752;8.346;2023-06-05T08:38:50;8.32;;;3.30;;
48975;SDS011;34791;52.752;8.346;2023-06-05T08:41:15;9.23;;;3.28;;
48975;SDS011;34791;52.752;8.346;2023-06-05T08:43:41;8.52;;;2.80;;
48975;SDS011;34791;52.752;8.346;2023-06-05T08:46:08;12.27;;;2.97;;
48975;SDS011;34791;52.752;8.346;2023-06-05T08:48:36;7.60;;;3.17;;
48975;SDS011;34791;52.752;8.346;2023-06-05T08:51:02;8.10;;;3.28;;
48975;SDS011;34791;52.752;8.346;2023-06-05T08:53:29;7.25;;;2.85;;
48975;SDS011;34791;52.752;8.346;2023-06-05T08:55:56;9.00;;;3.10;;
48975;SDS011;34791;52.752;8.346;2023-06-05T08:58:21;7.07;;;3.45;;
48975;SDS011;34791;52.752;8.346;2023-06-05T09:00:47;8.93;;;3.40;;
48975;SDS011;34791;52.752;8.346;2023-06-05T09:03:13;9.50;;;3.50;;
48975;SDS011;34791;52.752;8.346;2023-06-05T09:05:40;7.47;;;3.33;;
48975;SDS011;34791;52.752;8.346;2023-06-05T09:08:05;10.15;;;3.35;;
48975;SDS011;34791;52.752;8.346;2023-06-05T09:10:31;9.07;;;2.88;;
48975;SDS011;34791;52.752;8.346;2023-06-05T09:12:57;6.22;;;2.80;;
48975;SDS011;34791;52.752;8.346;2023-06-05T09:15:27;6.60;;;2.70;;
48975;SDS011;34791;52.752;8.346;2023-06-05T09:20:33;6.97;;;2.63;;
48975;SDS011;34791;52.752;8.346;2023-06-05T09:23:00;8.60;;;2.60;;
48975;SDS011;34791;52.752;8.346;2023-06-05T09:25:26;6.93;;;2.67;;
48975;SDS011;34791;52.752;8.346;2023-06-05T09:28:06;6.53;;;2.55;;
48975;SDS011;34791;52.752;8.346;2023-06-05T09:30:32;8.57;;;2.78;;
48975;SDS011;34791;52.752;8.346;2023-06-05T09:33:07;5.95;;;2.60;;
48975;SDS011;34791;52.752;8.346;2023-06-05T09:35:33;6.22;;;2.78;;
48975;SDS011;34791;52.752;8.346;2023-06-05T09:37:58;8.32;;;2.80;;
48975;SDS011;34791;52.752;8.346;2023-06-05T09:40:36;6.47;;;2.35;;
48975;SDS011;34791;52.752;8.346;2023-06-05T09:43:01;6.00;;;2.60;;
48975;SDS011;34791;52.752;8.346;2023-06-05T09:45:40;6.93;;;2.25;;
48975;SDS011;34791;52.752;8.346;2023-06-05T09:48:15;5.65;;;2.58;;
48975;SDS011;34791;52.752;8.346;2023-06-05T09:50:40;7.05;;;2.65;;
48975;SDS011;34791;52.752;8.346;2023-06-05T09:53:07;9.10;;;2.38;;
48975;SDS011;34791;52.752;8.346;2023-06-05T09:55:33;7.72;;;2.30;;
48975;SDS011;34791;52.752;8.346;2023-06-05T09:58:00;8.40;;;2.42;;
48975;SDS011;34791;52.752;8.346;2023-06-05T10:00:35;6.57;;;2.53;;
48975;SDS011;34791;52.752;8.346;2023-06-05T10:03:01;9.43;;;2.50;;
48975;SDS011;34791;52.752;8.346;2023-06-05T10:05:29;4.95;;;2.00;;
48975;SDS011;34791;52.752;8.346;2023-06-05T10:07:55;6.43;;;2.78;;
48975;SDS011;34791;52.752;8.346;2023-06-05T10:10:21;4.55;;;2.22;;
48975;SDS011;34791;52.752;8.346;2023-06-05T10:12:47;7.72;;;2.22;;
48975;SDS011;34791;52.752;8.346;2023-06-05T10:15:12;6.72;;;2.38;;
48975;SDS011;34791;52.752;8.346;2023-06-05T10:17:38;7.18;;;2.30;;
48975;SDS011;34791;52.752;8.346;2023-06-05T10:20:05;7.05;;;2.80;;
48975;SDS011;34791;52.752;8.346;2023-06-05T10:22:32;6.65;;;2.72;;
48975;SDS011;34791;52.752;8.346;2023-06-05T10:24:59;6.50;;;2.72;;
48975;SDS011;34791;52.752;8.346;2023-06-05T10:33:01;5.10;;;2.10;;
48975;SDS011;34791;52.752;8.346;2023-06-05T10:35:39;7.30;;;2.30;;
48975;SDS011;34791;52.752;8.346;2023-06-05T10:38:15;5.97;;;2.00;;
48975;SDS011;34791;52.752;8.346;2023-06-05T10:40:45;7.07;;;2.00;;
48975;SDS011;34791;52.752;8.346;2023-06-05T10:45:51;6.90;;;2.05;;
48975;SDS011;34791;52.752;8.346;2023-06-05T10:48:16;6.30;;;2.17;;
48975;SDS011;34791;52.752;8.346;2023-06-05T10:50:42;5.97;;;2.00;;
48975;SDS011;34791;52.752;8.346;2023-06-05T10:53:08;6.15;;;2.30;;
48975;SDS011;34791;52.752;8.346;2023-06-05T10:55:53;7.88;;;2.10;;
48975;SDS011;34791;52.752;8.346;2023-06-05T10:58:18;7.07;;;2.13;;
48975;SDS011;34791;52.752;8.346;2023-06-05T11:06:15;7.53;;;2.08;;
48975;SDS011;34791;52.752;8.346;2023-06-05T11:08:41;11.68;;;2.25;;
48975;SDS011;34791;52.752;8.346;2023-06-05T11:11:06;4.50;;;1.90;;
48975;SDS011;34791;52.752;8.346;2023-06-05T11:16:26;5.03;;;2.00;;
48975;SDS011;34791;52.752;8.346;2023-06-05T11:18:51;6.10;;;1.70;;
48975;SDS011;34791;52.752;8.346;2023-06-05T11:21:16;10.13;;;2.00;;
48975;SDS011;34791;52.752;8.346;2023-06-05T11:23:45;9.60;;;2.60;;
48975;SDS011;34791;52.752;8.346;2023-06-05T11:26:39;7.30;;;1.70;;
48975;SDS011;34791;52.752;8.346;2023-06-05T11:29:09;5.60;;;2.00;;
48975;SDS011;34791;52.752;8.346;2023-06-05T11:31:35;9.48;;;1.83;;
48975;SDS011;34791;52.752;8.346;2023-06-05T11:34:10;7.38;;;1.90;;
48975;SDS011;34791;52.752;8.346;2023-06-05T11:36:36;4.60;;;1.65;;
48975;SDS011;34791;52.752;8.346;2023-06-05T11:39:01;6.88;;;1.67;;
48975;SDS011;34791;52.752;8.346;2023-06-05T11:41:27;6.80;;;1.73;;
48975;SDS011;34791;52.752;8.346;2023-06-05T11:43:52;4.47;;;1.52;;
48975;SDS011;34791;52.752;8.346;2023-06-05T11:46:18;4.38;;;1.45;;
48975;SDS011;34791;52.752;8.346;2023-06-05T11:48:43;7.20;;;1.83;;
48975;SDS011;34791;52.752;8.346;2023-06-05T11:51:10;6.88;;;1.73;;
48975;SDS011;34791;52.752;8.346;2023-06-05T11:53:35;4.82;;;1.60;;
48975;SDS011;34791;52.752;8.346;2023-06-05T11:56:06;5.72;;;1.65;;
48975;SDS011;34791;52.752;8.346;2023-06-05T11:58:37;6.45;;;1.73;;
48975;SDS011;34791;52.752;8.346;2023-06-05T12:01:08;7.22;;;1.60;;
48975;SDS011;34791;52.752;8.346;2023-06-05T12:03:43;6.50;;;1.83;;
48975;SDS011;34791;52.752;8.346;2023-06-05T12:06:08;6.45;;;2.00;;
48975;SDS011;34791;52.752;8.346;2023-06-05T12:08:34;5.20;;;1.45;;
48975;SDS011;34791;52.752;8.346;2023-06-05T12:11:02;7.55;;;1.58;;
48975;SDS011;34791;52.752;8.346;2023-06-05T12:16:12;5.30;;;1.60;;
48975;SDS011;34791;52.752;8.346;2023-06-05T12:18:37;3.97;;;1.70;;
48975;SDS011;34791;52.752;8.346;2023-06-05T12:21:36;4.30;;;1.50;;
48975;SDS011;34791;52.752;8.346;2023-06-05T12:24:01;4.60;;;1.40;;
48975;SDS011;34791;52.752;8.346;2023-06-05T12:26:26;7.38;;;1.65;;
48975;SDS011;34791;52.752;8.346;2023-06-05T12:29:03;3.42;;;1.40;;
48975;SDS011;34791;52.752;8.346;2023-06-05T12:31:33;5.47;;;1.50;;
48975;SDS011;34791;52.752;8.346;2023-06-05T12:33:59;8.32;;;1.50;;
48975;SDS011;34791;52.752;8.346;2023-06-05T12:36:25;7.68;;;1.80;;
48975;SDS011;34791;52.752;8.346;2023-06-05T12:38:50;4.03;;;1.50;;
48975;SDS011;34791;52.752;8.346;2023-06-05T12:41:16;5.32;;;1.52;;
48975;SDS011;34791;52.752;8.346;2023-06-05T12:43:41;2.85;;;1.40;;
48975;SDS011;34791;52.752;8.346;2023-06-05T12:46:06;5.72;;;1.67;;
48975;SDS011;34791;52.752;8.346;2023-06-05T12:48:33;3.45;;;1.60;;
48975;SDS011;34791;52.752;8.346;2023-06-05T12:50:58;4.72;;;1.50;;
48975;SDS011;34791;52.752;8.346;2023-06-05T12:53:23;6.95;;;1.65;;
48975;SDS011;34791;52.752;8.346;2023-06-05T12:55:50;3.00;;;1.40;;
48975;SDS011;34791;52.752;8.346;2023-06-05T12:58:15;4.18;;;1.52;;
48975;SDS011;34791;52.752;8.346;2023-06-05T13:00:41;3.53;;;1.30;;
48975;SDS011;34791;52.752;8.346;2023-06-05T13:03:06;6.50;;;1.50;;
48975;SDS011;34791;52.752;8.346;2023-06-05T13:05:32;5.47;;;1.63;;
48975;SDS011;34791;52.752;8.346;2023-06-05T13:07:57;4.97;;;1.50;;
48975;SDS011;34791;52.752;8.346;2023-06-05T13:10:23;5.75;;;1.30;;
48975;SDS011;34791;52.752;8.346;2023-06-05T13:12:49;3.30;;;1.15;;
48975;SDS011;34791;52.752;8.346;2023-06-05T13:15:14;4.32;;;1.40;;
48975;SDS011;34791;52.752;8.346;2023-06-05T13:17:40;4.50;;;1.48;;
48975;SDS011;34791;52.752;8.346;2023-06-05T13:20:05;6.30;;;1.60;;
48975;SDS011;34791;52.752;8.346;2023-06-05T13:22:33;3.55;;;1.38;;
48975;SDS011;34791;52.752;8.346;2023-06-05T13:24:59;5.75;;;1.48;;
48975;SDS011;34791;52.752;8.346;2023-06-05T13:27:25;3.88;;;1.50;;
48975;SDS011;34791;52.752;8.346;2023-06-05T13:29:50;2.95;;;1.40;;
48975;SDS011;34791;52.752;8.346;2023-06-05T13:32:15;6.35;;;1.60;;
48975;SDS011;34791;52.752;8.346;2023-06-05T13:34:41;3.70;;;1.40;;
48975;SDS011;34791;52.752;8.346;2023-06-05T13:37:06;6.03;;;1.77;;
48975;SDS011;34791;52.752;8.346;2023-06-05T13:39:31;7.60;;;1.50;;
48975;SDS011;34791;52.752;8.346;2023-06-05T13:41:56;4.72;;;1.60;;
48975;SDS011;34791;52.752;8.346;2023-06-05T13:44:22;4.95;;;1.50;;
48975;SDS011;34791;52.752;8.346;2023-06-05T13:46:47;5.15;;;1.90;;
48975;SDS011;34791;52.752;8.346;2023-06-05T13:49:12;5.20;;;1.95;;
48975;SDS011;34791;52.752;8.346;2023-06-05T13:51:38;4.60;;;1.65;;
48975;SDS011;34791;52.752;8.346;2023-06-05T13:54:04;6.03;;;1.60;;
48975;SDS011;34791;52.752;8.346;2023-06-05T13:56:29;5.68;;;1.60;;
48975;SDS011;34791;52.752;8.346;2023-06-05T13:58:55;7.50;;;1.95;;
48975;SDS011;34791;52.752;8.346;2023-06-05T14:01:22;5.03;;;1.50;;
48975;SDS011;34791;52.752;8.346;2023-06-05T14:03:47;6.38;;;1.70;;
48975;SDS011;34791;52.752;8.346;2023-06-05T14:06:12;5.50;;;1.60;;
48975;SDS011;34791;52.752;8.346;2023-06-05T14:08:38;7.70;;;1.95;;
48975;SDS011;34791;52.752;8.346;2023-06-05T14:11:03;5.22;;;1.77;;
48975;SDS011;34791;52.752;8.346;2023-06-05T14:13:29;4.88;;;1.90;;
48975;SDS011;34791;52.752;8.346;2023-06-05T14:15:54;4.50;;;1.50;;
48975;SDS011;34791;52.752;8.346;2023-06-05T14:18:19;3.40;;;1.38;;
48975;SDS011;34791;52.752;8.346;2023-06-05T14:20:45;4.70;;;1.50;;
48975;SDS011;34791;52.752;8.346;2023-06-05T14:23:10;4.07;;;1.50;;
48975;SDS011;34791;52.752;8.346;2023-06-05T14:25:36;8.93;;;1.60;;
48975;SDS011;34791;52.752;8.346;2023-06-05T14:28:01;4.05;;;1.52;;
48975;SDS011;34791;52.752;8.346;2023-06-05T14:30:26;3.95;;;1.60;;
48975;SDS011;34791;52.752;8.346;2023-06-05T14:32:52;9.63;;;1.98;;
48975;SDS011;34791;52.752;8.346;2023-06-05T14:35:17;4.18;;;1.50;;
48975;SDS011;34791;52.752;8.346;2023-06-05T14:37:45;5.28;;;2.00;;
48975;SDS011;34791;52.752;8.346;2023-06-05T14:40:11;5.45;;;1.65;;
48975;SDS011;34791;52.752;8.346;2023-06-05T14:42:36;7.10;;;2.10;;
48975;SDS011;34791;52.752;8.346;2023-06-05T14:45:02;5.63;;;1.67;;
48975;SDS011;34791;52.752;8.346;2023-06-05T14:47:27;7.13;;;2.30;;
48975;SDS011;34791;52.752;8.346;2023-06-05T14:49:53;7.88;;;1.98;;
48975;SDS011;34791;52.752;8.346;2023-06-05T14:52:18;8.05;;;2.10;;
48975;SDS011;34791;52.752;8.346;2023-06-05T14:54:44;8.00;;;2.17;;
48975;SDS011;34791;52.752;8.346;2023-06-05T14:57:09;5.78;;;2.35;;
48975;SDS011;34791;52.752;8.346;2023-06-05T14:59:35;7.78;;;2.92;;
48975;SDS011;34791;52.752;8.346;2023-06-05T15:02:00;6.28;;;2.00;;
48975;SDS011;34791;52.752;8.346;2023-06-05T15:04:26;6.05;;;2.30;;